This is the latest recevied weather packets stored in our database for station/object KF4CQ. If no packets are shown the sender has not sent any weather packets the latest 10 day(s).
| Time | Temp. | Humidity | Pressure | Rain* | Wind** | Luminosity | Snow |
|---|---|---|---|---|---|---|---|
| 1777835537 | 25° C | 56% | 1018.2 hPa | 0 mm | - | 768 W/m² | - |
| 1777835234 | 26.11° C | 53% | 1018.4 hPa | 0 mm | - | 215 W/m² | - |
| 1777834930 | 25° C | 56% | 1018.3 hPa | 0 mm | - | 360 W/m² | - |
| 1777834628 | 25.56° C | 54% | 1018.5 hPa | 0 mm | - | 377 W/m² | - |
| 1777834323 | 25.56° C | 55% | 1018.6 hPa | 0 mm | - | 208 W/m² | - |
| 1777834018 | 25.56° C | 55% | 1018.6 hPa | 0 mm | - | 180 W/m² | - |
| 1777833714 | 25.56° C | 54% | 1018.7 hPa | 0 mm | - | 775 W/m² | - |
| 1777833411 | 23.89° C | 58% | 1018.8 hPa | 0 mm | - | 750 W/m² | - |
| 1777833108 | 24.44° C | 59% | 1018.7 hPa | 0 mm | - | 165 W/m² | - |
| 1777832806 | 24.44° C | 58% | 1018.9 hPa | 0 mm | - | 215 W/m² | - |
| 1777832504 | 25° C | 57% | 1019.1 hPa | 0 mm | - | 212 W/m² | - |
| 1777832201 | 24.44° C | 59% | 1019.2 hPa | 0 mm | - | 787 W/m² | - |
| 1777831898 | 24.44° C | 58% | 1018.9 hPa | 0 mm | - | 185 W/m² | - |
| 1777831595 | 24.44° C | 58% | 1019.1 hPa | 0 mm | - | 906 W/m² | - |
| 1777831293 | 24.44° C | 61% | 1019.1 hPa | 0 mm | - | 511 W/m² | - |
| 1777830989 | 24.44° C | 59% | 1018.9 hPa | 0 mm | - | 816 W/m² | - |
| 1777830687 | 24.44° C | 58% | 1019.4 hPa | 0 mm | - | 915 W/m² | - |
| 1777830383 | 25° C | 60% | 1019.3 hPa | 0 mm | - | 289 W/m² | - |
| 1777830080 | 24.44° C | 59% | 1019.2 hPa | 0 mm | - | 634 W/m² | - |
| 1777829775 | 23.33° C | 64% | 1019.4 hPa | 0 mm | - | 912 W/m² | - |
| 1777829472 | 24.44° C | 61% | 1019.5 hPa | 0 mm | - | 138 W/m² | - |
| 1777829169 | 23.89° C | 60% | 1019.6 hPa | 0 mm | - | 834 W/m² | - |
| 1777828867 | 24.44° C | 63% | 1019.4 hPa | 0 mm | - | 366 W/m² | - |
| 1777828563 | 25° C | 61% | 1019.6 hPa | 0 mm | - | 898 W/m² | - |
| 1777828260 | 24.44° C | 64% | 1019.6 hPa | 0 mm | - | 831 W/m² | - |
* Rain latest hour (hover to see other rain measurements)
** Current wind speed in m/s (hover to see current wind gust speed)